Plano's Hourly Summary for Tuesday, May 15, 2018
Hour Temp
(f)
RH
(%)
Solar Rad.
(MJ/m2)
Rainfall
(in)
Wind
(mph)
5/15/2018 12:00 AM 78 63 0 0 3.03
5/15/2018 1:00 AM 78 64 0 0 3.1
5/15/2018 2:00 AM 77 65 0 0 3.31
5/15/2018 3:00 AM 76 66 0 0 2.79
5/15/2018 4:00 AM 76 68 0 0 2.15
5/15/2018 5:00 AM 75 69 0 0 2.07
5/15/2018 6:00 AM 74 72 0 0 0.14
5/15/2018 7:00 AM 73 76 0.01 0 0.66
5/15/2018 8:00 AM 74 73 0.24 0 0.98
5/15/2018 9:00 AM 74 73 0.21 0 1.95
5/15/2018 10:00 AM 73 75 0.35 0 3.09
5/15/2018 11:00 AM 72 76 0.82 0 3.67
5/15/2018 12:00 PM 76 69 1.99 0 4.98
5/15/2018 1:00 PM 79 58 2.3 0 4.57
5/15/2018 2:00 PM 81 50 2.51 0 4.02
5/15/2018 3:00 PM 84 46 2.93 0 3.8
5/15/2018 4:00 PM 87 41 2.71 0 3.22
5/15/2018 5:00 PM 87 36 1.76 0 2.56
5/15/2018 6:00 PM 85 43 0.51 0 2.33
5/15/2018 7:00 PM 83 48 0.25 0 1.88
5/15/2018 8:00 PM 78 52 0.2 0 2.94
5/15/2018 9:00 PM 75 59 0.01 0 2.78
5/15/2018 10:00 PM 74 61 0 0 1.24
5/15/2018 11:00 PM 73 64 0 0 0
Data Summary 77 61 16.80 0.00 2.55